Terminal Aerodrome Forecast
Issued by NWS Atlanta, GA

Home | Current Version | Previous Version | Text Only | Print | Product List | Glossary On
Versions: 1 2 3 4 5 6 7 8 9 10 11 12 13 14 15 16 17 18 19 20 21 22 23 24 25 26 27 28 29 30 31 32 33 34 35 36 37 38 39
237
FTUS42 KFFC 240142 AAA
TAFATL
TAF AMD
KATL 240142Z 2402/2506 27009KT P6SM FEW040
     FM240300 28005KT P6SM SKC
     FM241400 29009KT P6SM SKC
     FM241600 29010G20KT P6SM FEW040
     FM250000 30009KT P6SM SCT250=

USA.gov is the U.S. government's official web portal to all federal, state and local government web resources and services.